LIBNLIBR

Guest
Details From LIBN - LECCE
To LIBR - BRINDISI/Casale
Flight Number -
Tags generated
Created
Modified
Stats Distance 27 nm / 50 km
Max Altitude 0 ft / 0 m
Waypoints 3
Social Downloads 3
Likes 0
Share VATSIM

Download

Looking for another format? Having issues loading an existing format? Contact us
Advertisement - Login to hide

Notes

None

Route

LIBN BRD LIBR

ID Type Via Altitude Latitude Longitude Leg Dist Tot Dist Heading (true) Name
O LIBN APT - 0 ft / 0 m 40.23898˚ 18.13309˚ - 0 nm - LECCE
BRD VOR - 0 ft / 0 m 40.61083˚ 18.00278˚ 23 nm 23 nm 345° / 345° BRINDISI VORTAC
O LIBR APT - 0 ft / 0 m 40.66082˚ 17.94267˚ 4 nm 27 nm 318° / 318° BRINDISI/Casale

Altitude Profile

Advertisement - Login to hide

LIBN

Details ICAO LIBN (LCC)
Name LECCE
Region Italy
Timezone Europe/Rome (UTC+2.0)
Stats Elevation 156 ft / 48 m (AMSL)
Location 40.238982° 18.133091°
Runways 1
Magnetic Variation 3.929° E

METAR

LIBN 211355Z 33005KT 9999 SCT035 27/16 Q1011 RMK BKN SCT200 VIS MIN 9999 WIND THR14 30005KT WIND THR32 30005KT BLU

Decode

TAF

Not found

Departure Runways

ID Width Length Bearing (true) Bearing (mag) Surface Threshold Offset Overrun Length
14 197 ft / 60 m 6,786 ft / 2,068 m 145.87° 141.94° Asphalt 197 ft / 60 m 0 ft / 0 m
32 197 ft / 60 m 6,786 ft / 2,068 m 325.87° 321.94° Asphalt 448 ft / 137 m 0 ft / 0 m

LIBR

Details ICAO LIBR (BDS)
Name BRINDISI/Casale
Region Italy
Timezone Europe/Rome (UTC+2.0)
Stats Elevation 47 ft / 14 m (AMSL)
Location 40.660824° 17.942673°
Runways 2
Magnetic Variation 3.934° E

METAR

LIBR 211450Z 36007KT 9999 FEW045 21/18 Q1011

Decode

TAF

TAF LIBR 211100Z 2112/2212 34010KT 9999 SCT050 BECMG 2113/2115 06010KT BECMG 2116/2118 VRB05KT BECMG 2207/2209 10010KT

Decode

Destination Runways

ID Width Length Bearing (true) Bearing (mag) Surface Threshold Offset Overrun Length
13 148 ft / 45 m 9,398 ft / 2,865 m 136.56° 132.63° Asphalt 0 ft / 0 m 689 ft / 210 m
23 148 ft / 45 m 6,129 ft / 1,868 m 232.52° 228.59° Asphalt 230 ft / 70 m 0 ft / 0 m
31 148 ft / 45 m 9,398 ft / 2,865 m 316.58° 312.65° Asphalt 0 ft / 0 m 387 ft / 118 m
5 148 ft / 45 m 6,129 ft / 1,868 m 52.51° 48.58° Asphalt 0 ft / 0 m 0 ft / 0 m

Approach Navaids

Runway Type Ident Frequency Range Bearing (true) Bearing (mag) Slope Elevation
31 Localiser IBN 109.50 MHz 18 nm / 33 km 316.88° 312.95° - 48 ft / 15 m (AMSL)
31 Glidescope IBN 109.50 MHz 10 nm / 19 km 316.57° 312.64° 2.50° 94 ft / 29 m (AMSL)

Popular Alternatives